Main page
METAR-TAF:

METAR-TAF

Airports :

Friedrichshafen Airport

Friedrichshafen, Germany

latitude: 47-40N, longitude: 009-31E, elevation: 416 m

Current weather observation

The report was made 31 minutes ago, at 04:20 UTC
Wind 2 kt from variable directions
Temperature -5°C
Humidity 93%
Pressure 1018 hPa
Visibility 10 km or more

METAR: EDNY 160420Z AUTO VRB02KT 9999 // NCD M05/M06 Q1018

Time: 05:51 (04:51 UTC)

Forecast

The report was made 5 hours and 51 minutes ago, at 23:00 UTC
Forecast valid from 16 at 00 UTC to 16 at 24 UTC
Wind 3 kt from variable directions
Visibility 10 km or more
no clouds below 1500 m and no cumulonimbus
Probability 30% :
Temporary
from 16 at 04 UTC to 16 at 09 UTC
Visibility: 0700 m
freezing fog

TAF: EDNY 152300Z 1600/1624 VRB03KT CAVOK PROB30 TEMPO 1604/1609 0700 FZFG

Weather observations and forecasts of more than 4000 airports (METAR and TAF reports).

The available stations are represented by yellow and red dots on the map.

Hover mouse over dot to see the name of the station.

Then click to see weather observations and forecasts.

To change the map : click on the green buttons with a black cross to zoom in, on the green button with a dash to zoom out, or on the green arrows for adjacent maps.


METAR-TAF: